Metar z połowy godziny Komunikat METAR ze strony awiacja.imgw.pl Metar G30 EPLB METAR EPLB 241930Z 27003KT 9000 NSC 15/14 Q1011 =